Time;durP1;ratioP1;P1;durP2;ratioP2;P2;SDS_P1;SDS_P2;PMS_P1;PMS_P2;Temp;Humidity;BMP_temperature;BMP_pressure;BME280_temperature;BME280_humidity;BME280_pressure;Samples;Min_cycle;Max_cycle;Signal;HPM_P1;HPM_P2
2021/05/18 00:01:50;;;;;;;25.38;12.50;;;;;;;;;;5074578;28;20285;-74
2021/05/18 00:04:18;;;;;;;21.00;11.45;;;;;;;;;;5075117;28;20206;-74
2021/05/18 00:06:46;;;;;;;24.52;12.20;;;;;;;;;;5074613;28;20192;-74
2021/05/18 00:11:58;;;;;;;17.15;10.98;;;;;;;;;;5074655;28;20208;-75
2021/05/18 00:14:26;;;;;;;18.13;11.80;;;;;;;;;;5074546;28;20198;-74
2021/05/18 00:16:53;;;;;;;19.50;12.70;;;;;;;;;;5074546;28;20220;-75
2021/05/18 00:19:21;;;;;;;21.38;12.60;;;;;;;;;;5075061;28;20227;-75
2021/05/18 00:21:48;;;;;;;17.63;13.07;;;;;;;;;;5074033;28;20197;-74
2021/05/18 00:24:15;;;;;;;19.73;13.27;;;;;;;;;;5074356;28;20194;-74
2021/05/18 00:26:42;;;;;;;24.65;11.65;;;;;;;;;;5074140;28;20256;-73
2021/05/18 00:29:09;;;;;;;22.48;12.00;;;;;;;;;;5074764;28;20292;-74
2021/05/18 00:31:36;;;;;;;25.42;14.02;;;;;;;;;;5074929;28;20290;-74
2021/05/18 00:34:03;;;;;;;24.90;12.87;;;;;;;;;;5073791;28;20194;-74
2021/05/18 00:36:31;;;;;;;16.90;12.68;;;;;;;;;;5076092;28;20530;-74
2021/05/18 00:38:58;;;;;;;23.73;12.55;;;;;;;;;;5075057;28;20225;-75
2021/05/18 00:41:24;;;;;;;19.48;10.55;;;;;;;;;;5073995;28;20192;-75
2021/05/18 00:43:51;;;;;;;26.23;12.77;;;;;;;;;;5074232;28;20258;-75
2021/05/18 00:46:18;;;;;;;19.20;10.90;;;;;;;;;;5074135;28;20190;-75
2021/05/18 00:48:56;;;;;;;18.33;11.88;;;;;;;;;;5073587;28;20730;-76
2021/05/18 00:51:23;;;;;;;18.90;11.23;;;;;;;;;;5075073;28;20193;-75
2021/05/18 00:53:51;;;;;;;20.73;11.00;;;;;;;;;;5074039;28;20200;-75
2021/05/18 00:56:32;;;;;;;20.35;11.57;;;;;;;;;;5073562;28;20672;-74
2021/05/18 00:59:01;;;;;;;18.80;11.70;;;;;;;;;;5074706;28;20313;-73
2021/05/18 01:01:28;;;;;;;26.33;12.18;;;;;;;;;;5073867;28;20239;-74
2021/05/18 01:03:55;;;;;;;24.20;14.20;;;;;;;;;;5073733;28;20192;-74
2021/05/18 01:06:25;;;;;;;21.75;12.80;;;;;;;;;;5073631;28;20214;-73
2021/05/18 01:08:53;;;;;;;22.98;13.45;;;;;;;;;;5073738;28;20327;-73
2021/05/18 01:11:22;;;;;;;25.42;13.35;;;;;;;;;;5073530;28;20602;-73
2021/05/18 01:13:49;;;;;;;18.70;12.63;;;;;;;;;;5073462;28;20221;-74
2021/05/18 01:16:16;;;;;;;20.55;12.63;;;;;;;;;;5073447;28;20199;-74
2021/05/18 01:18:43;;;;;;;20.67;12.35;;;;;;;;;;5073422;28;20246;-75
2021/05/18 01:21:11;;;;;;;20.20;11.90;;;;;;;;;;5073268;28;20710;-75
2021/05/18 01:23:38;;;;;;;22.90;13.02;;;;;;;;;;5073670;28;20197;-74
2021/05/18 01:26:05;;;;;;;20.58;12.70;;;;;;;;;;5073332;28;20201;-74
2021/05/18 01:28:32;;;;;;;29.05;13.07;;;;;;;;;;5072944;28;20191;-74
2021/05/18 01:30:59;;;;;;;22.73;11.88;;;;;;;;;;5073571;28;20235;-76
2021/05/18 01:33:26;;;;;;;27.10;13.57;;;;;;;;;;5073351;28;20193;-73
2021/05/18 01:35:53;;;;;;;23.23;12.88;;;;;;;;;;5073320;28;20196;-74
2021/05/18 01:38:25;;;;;;;25.38;13.88;;;;;;;;;;5073191;28;20206;-74
2021/05/18 01:43:36;;;;;;;19.95;13.00;;;;;;;;;;5073953;28;20606;-74
2021/05/18 01:46:03;;;;;;;19.73;12.00;;;;;;;;;;5073378;28;20211;-74
2021/05/18 01:48:34;;;;;;;28.33;12.27;;;;;;;;;;5073400;28;20290;-74
2021/05/18 01:51:01;;;;;;;20.55;12.00;;;;;;;;;;5072975;28;20190;-74
2021/05/18 01:53:29;;;;;;;23.20;12.05;;;;;;;;;;5073596;28;20199;-74
2021/05/18 01:56:13;;;;;;;26.35;11.48;;;;;;;;;;5073228;28;20558;-74
2021/05/18 01:58:41;;;;;;;16.67;10.73;;;;;;;;;;5073016;28;20201;-73
2021/05/18 02:01:07;;;;;;;17.15;10.70;;;;;;;;;;5074401;28;20208;-74
2021/05/18 02:03:34;;;;;;;21.33;11.15;;;;;;;;;;5076977;28;20196;-74
2021/05/18 02:06:01;;;;;;;27.73;12.40;;;;;;;;;;5076744;28;20246;-74
2021/05/18 02:08:29;;;;;;;21.17;12.55;;;;;;;;;;5077053;28;20215;-75
2021/05/18 02:10:56;;;;;;;27.23;13.85;;;;;;;;;;5076525;28;20663;-75
2021/05/18 02:13:23;;;;;;;19.63;10.55;;;;;;;;;;5076423;28;20250;-74
2021/05/18 02:15:54;;;;;;;29.15;13.27;;;;;;;;;;5076531;28;20285;-75
2021/05/18 02:18:36;;;;;;;21.42;12.27;;;;;;;;;;5076971;28;20272;-74
2021/05/18 02:21:18;;;;;;;24.80;13.70;;;;;;;;;;5076895;28;20185;-74
2021/05/18 02:26:31;;;;;;;25.30;14.93;;;;;;;;;;5076727;28;20319;-75
2021/05/18 02:28:57;;;;;;;26.10;12.97;;;;;;;;;;5076459;28;20226;-75
2021/05/18 02:31:26;;;;;;;25.17;12.30;;;;;;;;;;5077305;28;20472;-75
2021/05/18 02:33:52;;;;;;;26.23;12.32;;;;;;;;;;5076500;28;20585;-75
2021/05/18 02:36:20;;;;;;;22.10;11.60;;;;;;;;;;5076562;28;20290;-75
2021/05/18 02:38:48;;;;;;;21.60;12.23;;;;;;;;;;5076363;28;20191;-74
2021/05/18 02:41:15;;;;;;;24.08;12.75;;;;;;;;;;5076643;28;20222;-75
2021/05/18 02:43:47;;;;;;;24.10;13.80;;;;;;;;;;5076362;28;20258;-75
2021/05/18 02:49:05;;;;;;;28.02;13.80;;;;;;;;;;5076354;28;20198;-74
2021/05/18 02:49:09;;;;;;;28.85;13.32;;;;;;;;;;5075985;28;20188;-75
2021/05/18 02:51:36;;;;;;;28.80;14.10;;;;;;;;;;5076011;28;20187;-75
2021/05/18 02:54:04;;;;;;;21.85;12.90;;;;;;;;;;5076463;28;20203;-75
2021/05/18 02:56:35;;;;;;;21.95;13.00;;;;;;;;;;5076421;28;20552;-75
2021/05/18 02:59:10;;;;;;;28.23;15.07;;;;;;;;;;5075899;28;20229;-75
2021/05/18 03:01:37;;;;;;;29.70;14.35;;;;;;;;;;5076319;28;20183;-75
2021/05/18 03:04:05;;;;;;;31.38;14.60;;;;;;;;;;5075967;28;20205;-74
2021/05/18 03:06:32;;;;;;;23.33;14.00;;;;;;;;;;5075537;28;20667;-75
2021/05/18 03:08:59;;;;;;;31.38;14.68;;;;;;;;;;5075792;28;20199;-75
2021/05/18 03:11:26;;;;;;;29.85;13.35;;;;;;;;;;5075412;28;20203;-75
2021/05/18 03:13:54;;;;;;;22.98;14.00;;;;;;;;;;5074863;28;20200;-75
2021/05/18 03:16:21;;;;;;;22.63;13.73;;;;;;;;;;5075464;28;20655;-76
2021/05/18 03:18:48;;;;;;;32.25;15.38;;;;;;;;;;5075565;28;20204;-75
2021/05/18 03:21:14;;;;;;;26.40;15.65;;;;;;;;;;5075612;28;20203;-75
2021/05/18 03:23:41;;;;;;;26.92;15.10;;;;;;;;;;5076016;28;20191;-75
2021/05/18 03:26:08;;;;;;;29.17;15.20;;;;;;;;;;5075632;28;20562;-77
2021/05/18 03:28:35;;;;;;;29.67;14.70;;;;;;;;;;5075194;28;20195;-76
2021/05/18 03:34:26;;;;;;;29.10;14.15;;;;;;;;;;5075660;28;20235;-76
2021/05/18 03:36:43;;;;;;;34.83;15.02;;;;;;;;;;5075280;28;20285;-76
2021/05/18 03:39:10;;;;;;;27.92;15.57;;;;;;;;;;5074908;28;20217;-76
2021/05/18 03:41:49;;;;;;;26.90;14.98;;;;;;;;;;5075768;28;20218;-76
2021/05/18 03:44:22;;;;;;;23.10;13.85;;;;;;;;;;5075225;28;20206;-75
2021/05/18 03:52:21;;;;;;;27.58;14.10;;;;;;;;;;5075127;28;20180;-76
2021/05/18 03:54:57;;;;;;;19.30;13.38;;;;;;;;;;5075351;28;20237;-76
2021/05/18 04:03:04;;;;;;;26.88;13.73;;;;;;;;;;5074819;28;20191;-75
2021/05/18 04:19:24;;;;;;;21.93;12.80;;;;;;;;;;5038400;28;20224;-76
2021/05/18 04:22:06;;;;;;;20.52;12.82;;;;;;;;;;5074470;28;20524;-74
2021/05/18 04:25:00;;;;;;;24.02;13.20;;;;;;;;;;5074675;28;20185;-75
2021/05/18 04:38:48;;;;;;;25.50;14.38;;;;;;;;;;5073889;28;20524;-74
2021/05/18 04:41:25;;;;;;;22.73;13.70;;;;;;;;;;5074216;28;20234;-74
2021/05/18 04:52:17;;;;;;;25.95;16.13;;;;;;;;;;5049109;28;20420;-74
2021/05/18 05:00:13;;;;;;;31.35;15.73;;;;;;;;;;5094160;28;20579;-73
2021/05/18 05:03:05;;;;;;;29.80;17.00;;;;;;;;;;5093429;28;20192;-74
2021/05/18 05:08:20;;;;;;;26.57;15.00;;;;;;;;;;5094130;28;20398;-74
2021/05/18 05:16:17;;;;;;;25.98;16.40;;;;;;;;;;5093598;28;20317;-73
2021/05/18 05:18:43;;;;;;;25.73;16.50;;;;;;;;;;5093850;28;20398;-74
2021/05/18 05:21:11;;;;;;;33.23;17.13;;;;;;;;;;5093531;28;20477;-74
2021/05/18 05:23:38;;;;;;;28.30;16.33;;;;;;;;;;5093338;28;20434;-73
2021/05/18 05:26:05;;;;;;;28.65;17.45;;;;;;;;;;5093404;28;20478;-75
2021/05/18 05:28:32;;;;;;;34.50;17.93;;;;;;;;;;5093177;28;20223;-74
2021/05/18 05:30:58;;;;;;;29.83;18.13;;;;;;;;;;5093311;28;20562;-74
2021/05/18 05:33:25;;;;;;;25.80;16.37;;;;;;;;;;5093388;28;20463;-74
2021/05/18 05:35:52;;;;;;;29.47;19.43;;;;;;;;;;5092676;28;20450;-74
2021/05/18 05:38:22;;;;;;;27.90;18.80;;;;;;;;;;5093176;28;20440;-73
2021/05/18 05:40:49;;;;;;;33.57;19.77;;;;;;;;;;5093098;28;20257;-72
2021/05/18 05:43:15;;;;;;;36.42;18.15;;;;;;;;;;5092946;28;20450;-71
2021/05/18 05:45:42;;;;;;;28.60;19.13;;;;;;;;;;5093095;28;20635;-72
2021/05/18 05:48:09;;;;;;;27.67;18.60;;;;;;;;;;5092829;28;20965;-71
2021/05/18 05:50:36;;;;;;;28.70;20.00;;;;;;;;;;5092839;28;20283;-71
2021/05/18 05:53:02;;;;;;;27.77;18.33;;;;;;;;;;5092789;28;20568;-71
2021/05/18 05:55:30;;;;;;;26.00;17.47;;;;;;;;;;5092733;28;20442;-71
2021/05/18 05:57:56;;;;;;;32.40;20.77;;;;;;;;;;5092922;28;20454;-71
2021/05/18 06:00:23;;;;;;;31.83;20.23;;;;;;;;;;5092486;28;20467;-71
2021/05/18 06:02:50;;;;;;;32.03;20.00;;;;;;;;;;5093019;28;20438;-71
2021/05/18 06:05:17;;;;;;;31.10;20.30;;;;;;;;;;5092622;28;20592;-71
2021/05/18 06:07:44;;;;;;;31.03;21.43;;;;;;;;;;5092947;28;20450;-71
2021/05/18 06:10:14;;;;;;;30.03;20.70;;;;;;;;;;5093372;28;20467;-71
2021/05/18 06:16:02;;;;;;;36.53;22.17;;;;;;;;;;5087991;28;20430;-71
2021/05/18 06:41:08;;;;;;;37.60;24.33;;;;;;;;;;5066400;28;20423;-70
2021/05/18 06:43:26;;;;;;;33.15;23.40;;;;;;;;;;5092760;28;20464;-71
2021/05/18 06:48:35;;;;;;;42.27;24.43;;;;;;;;;;5096909;28;20403;-71
2021/05/18 06:51:02;;;;;;;33.27;23.90;;;;;;;;;;5096500;28;20435;-71
2021/05/18 06:53:28;;;;;;;33.60;24.47;;;;;;;;;;5096308;28;20534;-71
2021/05/18 06:55:57;;;;;;;34.47;22.20;;;;;;;;;;5096875;28;20776;-72
2021/05/18 07:01:16;;;;;;;33.67;24.23;;;;;;;;;;5095558;28;20471;-71
2021/05/18 07:03:46;;;;;;;31.60;25.00;;;;;;;;;;5096163;28;20513;-71
2021/05/18 07:06:26;;;;;;;34.83;24.50;;;;;;;;;;5095854;28;20461;-71
2021/05/18 07:08:56;;;;;;;38.33;25.47;;;;;;;;;;5095786;28;20510;-71
2021/05/18 07:11:23;;;;;;;34.80;25.63;;;;;;;;;;5096238;28;20439;-72
2021/05/18 07:13:50;;;;;;;38.67;23.40;;;;;;;;;;5095896;28;20775;-71
2021/05/18 07:16:18;;;;;;;39.70;24.33;;;;;;;;;;5095438;28;20440;-71
2021/05/18 07:18:44;;;;;;;33.57;22.67;;;;;;;;;;5095462;28;20458;-71
2021/05/18 07:21:11;;;;;;;34.70;25.03;;;;;;;;;;5095262;28;21098;-71
2021/05/18 07:23:38;;;;;;;29.23;23.60;;;;;;;;;;5095711;28;20862;-71
2021/05/18 07:26:06;;;;;;;28.57;21.63;;;;;;;;;;5095618;28;20435;-71
2021/05/18 07:28:35;;;;;;;25.53;20.30;;;;;;;;;;5095484;28;20475;-72
2021/05/18 07:31:02;;;;;;;30.00;21.27;;;;;;;;;;5095408;28;20480;-71
2021/05/18 07:33:30;;;;;;;29.37;21.00;;;;;;;;;;5096079;28;20446;-72
2021/05/18 07:35:58;;;;;;;28.20;21.87;;;;;;;;;;5095000;28;20446;-71
2021/05/18 07:38:25;;;;;;;26.17;20.77;;;;;;;;;;5094787;28;20484;-71
2021/05/18 07:40:52;;;;;;;25.80;20.87;;;;;;;;;;5095232;28;21042;-71
2021/05/18 07:43:18;;;;;;;23.37;19.83;;;;;;;;;;5095697;28;20475;-71
2021/05/18 07:45:50;;;;;;;24.10;19.53;;;;;;;;;;5095111;28;20431;-71
2021/05/18 07:48:22;;;;;;;24.03;20.07;;;;;;;;;;5094917;28;20431;-70
2021/05/18 07:50:57;;;;;;;23.07;19.50;;;;;;;;;;5095413;28;20842;-71
2021/05/18 08:07:09;;;;;;;24.57;20.30;;;;;;;;;;5095102;28;20435;-71
2021/05/18 08:09:41;;;;;;;23.67;18.50;;;;;;;;;;5094444;28;20435;-71
2021/05/18 08:12:13;;;;;;;22.77;20.07;;;;;;;;;;5095112;28;20492;-71
2021/05/18 08:14:44;;;;;;;22.30;17.37;;;;;;;;;;5095148;28;20424;-71
2021/05/18 08:17:18;;;;;;;22.03;15.90;;;;;;;;;;5094404;28;20494;-71
2021/05/18 08:59:06;;;;;;;11.90;10.57;;;;;;;;;;5093464;28;20403;-71
2021/05/18 09:28:43;;;;;;;10.63;9.10;;;;;;;;;;5093404;28;20871;-71
2021/05/18 09:50:31;;;;;;;8.97;8.07;;;;;;;;;;5092819;28;20427;-73
2021/05/18 10:34:56;;;;;;;8.33;7.30;;;;;;;;;;5096704;28;20981;-71
2021/05/18 10:37:44;;;;;;;6.87;4.40;;;;;;;;;;5096925;28;20442;-72
2021/05/18 10:40:30;;;;;;;5.27;4.13;;;;;;;;;;5096627;28;20470;-71
2021/05/18 10:43:13;;;;;;;6.37;4.83;;;;;;;;;;5096145;28;20510;-71
2021/05/18 10:46:00;;;;;;;3.93;3.60;;;;;;;;;;5096388;28;20870;-70
2021/05/18 10:48:26;;;;;;;5.13;4.63;;;;;;;;;;5096492;28;20454;-71
2021/05/18 10:50:53;;;;;;;18.80;14.27;;;;;;;;;;5096542;28;20443;-71
2021/05/18 10:53:21;;;;;;;19.13;13.47;;;;;;;;;;5096462;28;20802;-71
2021/05/18 10:56:03;;;;;;;7.07;6.40;;;;;;;;;;5096310;28;20438;-71
2021/05/18 10:58:31;;;;;;;4.50;4.10;;;;;;;;;;5096163;28;20565;-70
2021/05/18 11:00:58;;;;;;;4.40;4.00;;;;;;;;;;5095988;28;20479;-70
2021/05/18 11:03:25;;;;;;;5.03;4.00;;;;;;;;;;5096598;28;20447;-70
2021/05/18 11:05:52;;;;;;;6.23;5.27;;;;;;;;;;5095963;28;20440;-70
2021/05/18 11:08:19;;;;;;;5.43;4.90;;;;;;;;;;5095841;28;20448;-70
2021/05/18 11:10:47;;;;;;;4.43;4.03;;;;;;;;;;5095559;28;20447;-70
2021/05/18 11:13:14;;;;;;;4.20;3.80;;;;;;;;;;5096639;28;20479;-71
2021/05/18 11:15:42;;;;;;;4.67;3.80;;;;;;;;;;5095539;28;20522;-70
2021/05/18 11:18:09;;;;;;;3.30;3.10;;;;;;;;;;5095447;28;20439;-71
2021/05/18 11:20:48;;;;;;;3.83;3.00;;;;;;;;;;5095684;28;20844;-70
2021/05/18 11:23:20;;;;;;;3.00;2.80;;;;;;;;;;5096031;28;20945;-70
2021/05/18 11:25:50;;;;;;;2.73;2.53;;;;;;;;;;5095386;28;20435;-70
2021/05/18 11:28:18;;;;;;;2.23;2.03;;;;;;;;;;5095689;28;20454;-70
2021/05/18 11:30:46;;;;;;;2.80;2.33;;;;;;;;;;5095950;28;20554;-70
2021/05/18 11:33:13;;;;;;;2.50;2.30;;;;;;;;;;5094209;28;20569;-70
2021/05/18 11:35:40;;;;;;;3.80;3.20;;;;;;;;;;5095174;28;20530;-70
2021/05/18 11:38:10;;;;;;;3.90;2.73;;;;;;;;;;5095116;28;20586;-70
2021/05/18 11:40:41;;;;;;;3.43;3.13;;;;;;;;;;5095134;28;20520;-70
2021/05/18 11:43:15;;;;;;;3.87;3.50;;;;;;;;;;5095752;28;20431;-70
2021/05/18 11:45:42;;;;;;;3.80;3.50;;;;;;;;;;5095460;28;20438;-70
2021/05/18 11:48:13;;;;;;;3.53;3.13;;;;;;;;;;5094946;28;20448;-70
2021/05/18 11:50:40;;;;;;;3.60;3.30;;;;;;;;;;5095237;28;20473;-71
2021/05/18 11:53:07;;;;;;;3.83;3.23;;;;;;;;;;5095370;28;20624;-71
2021/05/18 11:55:34;;;;;;;4.33;3.90;;;;;;;;;;5095055;28;20458;-71
2021/05/18 11:58:02;;;;;;;4.27;3.87;;;;;;;;;;5094787;28;20550;-70
2021/05/18 12:00:31;;;;;;;4.93;4.47;;;;;;;;;;5095278;28;20479;-71
2021/05/18 12:03:08;;;;;;;4.47;4.17;;;;;;;;;;5094865;28;20942;-71
2021/05/18 12:05:36;;;;;;;7.03;4.30;;;;;;;;;;5095120;28;20474;-71
2021/05/18 12:08:02;;;;;;;5.60;4.20;;;;;;;;;;5095092;28;20436;-71
2021/05/18 12:10:30;;;;;;;4.73;4.17;;;;;;;;;;5094934;28;20930;-70
2021/05/18 12:12:57;;;;;;;5.60;5.10;;;;;;;;;;5094462;28;20969;-70
2021/05/18 12:15:24;;;;;;;4.70;4.30;;;;;;;;;;5094569;28;20525;-71
2021/05/18 12:17:54;;;;;;;4.93;4.53;;;;;;;;;;5094365;28;20443;-71
2021/05/18 12:20:21;;;;;;;5.37;4.60;;;;;;;;;;5094601;28;20467;-70
2021/05/18 12:22:48;;;;;;;5.80;5.30;;;;;;;;;;5094743;28;20435;-71
2021/05/18 12:25:31;;;;;;;5.90;5.30;;;;;;;;;;5094678;28;20438;-71
2021/05/18 12:28:06;;;;;;;5.73;5.13;;;;;;;;;;5094377;28;20467;-71
2021/05/18 12:30:36;;;;;;;5.50;5.00;;;;;;;;;;5094859;28;20565;-72
2021/05/18 12:33:04;;;;;;;6.10;5.50;;;;;;;;;;5094561;28;20580;-70
2021/05/18 12:35:31;;;;;;;6.40;5.80;;;;;;;;;;5094403;28;20443;-70
2021/05/18 12:37:58;;;;;;;5.90;5.40;;;;;;;;;;5093865;28;20440;-70
2021/05/18 12:40:29;;;;;;;6.07;5.00;;;;;;;;;;5093693;28;20507;-80
2021/05/18 12:42:56;;;;;;;5.60;4.87;;;;;;;;;;5094453;28;20537;-77
2021/05/18 12:45:24;;;;;;;5.07;4.40;;;;;;;;;;5093636;28;20639;-77
2021/05/18 12:47:52;;;;;;;6.87;5.20;;;;;;;;;;5094763;28;20794;-78
2021/05/18 12:50:20;;;;;;;5.87;5.30;;;;;;;;;;5093900;28;20446;-78
2021/05/18 12:52:48;;;;;;;6.77;6.17;;;;;;;;;;5093958;28;20523;-77
2021/05/18 12:55:17;;;;;;;6.73;5.90;;;;;;;;;;5094158;28;20578;-77
2021/05/18 12:57:50;;;;;;;7.70;6.90;;;;;;;;;;5093971;28;20448;-79
2021/05/18 13:00:18;;;;;;;7.37;6.67;;;;;;;;;;5094191;28;20475;-78
2021/05/18 13:02:45;;;;;;;6.80;6.10;;;;;;;;;;5084230;28;20445;-76
2021/05/18 13:05:14;;;;;;;8.50;6.37;;;;;;;;;;5073738;28;20502;-77
2021/05/18 13:07:42;;;;;;;6.37;5.77;;;;;;;;;;5073578;28;20475;-76
2021/05/18 13:10:13;;;;;;;6.53;5.93;;;;;;;;;;5073611;28;20477;-78
2021/05/18 13:12:39;;;;;;;8.47;7.23;;;;;;;;;;5073655;28;20578;-78
2021/05/18 13:15:08;;;;;;;6.73;5.43;;;;;;;;;;5073443;28;20524;-76
2021/05/18 13:17:35;;;;;;;5.30;4.90;;;;;;;;;;5073459;28;20438;-79
2021/05/18 13:20:04;;;;;;;6.00;5.47;;;;;;;;;;5073225;28;21062;-77
2021/05/18 13:22:34;;;;;;;5.77;5.23;;;;;;;;;;5073121;28;20448;-77
2021/05/18 13:27:54;;;;;;;7.30;6.60;;;;;;;;;;5073266;28;20450;-77
2021/05/18 13:30:21;;;;;;;5.80;5.33;;;;;;;;;;5073050;28;20509;-77
2021/05/18 13:32:48;;;;;;;6.07;5.53;;;;;;;;;;5083959;28;20452;-78
2021/05/18 13:35:16;;;;;;;6.00;5.50;;;;;;;;;;5093133;28;20451;-76
2021/05/18 13:37:43;;;;;;;6.20;5.60;;;;;;;;;;5093261;28;20536;-78
2021/05/18 13:40:11;;;;;;;7.23;5.97;;;;;;;;;;5093241;28;20477;-78
2021/05/18 13:42:39;;;;;;;5.80;5.30;;;;;;;;;;5093291;28;20435;-77
2021/05/18 13:45:06;;;;;;;7.57;6.13;;;;;;;;;;5094145;28;20516;-77
2021/05/18 13:47:33;;;;;;;6.27;5.67;;;;;;;;;;5093125;28;20946;-78
2021/05/18 13:49:59;;;;;;;6.33;5.73;;;;;;;;;;5093176;28;20441;-78
2021/05/18 13:52:26;;;;;;;7.43;6.73;;;;;;;;;;5092805;28;20466;-77
2021/05/18 13:54:54;;;;;;;7.07;6.33;;;;;;;;;;5092782;28;20531;-77
2021/05/18 13:57:22;;;;;;;5.90;5.30;;;;;;;;;;5095410;28;20443;-80
2021/05/18 13:59:49;;;;;;;7.50;6.07;;;;;;;;;;5097002;28;20455;-78
2021/05/18 14:02:16;;;;;;;7.53;6.83;;;;;;;;;;5097106;28;20494;-75
2021/05/18 14:04:43;;;;;;;7.60;6.90;;;;;;;;;;5096794;28;20485;-74
2021/05/18 14:10:26;;;;;;;8.17;7.30;;;;;;;;;;5087304;28;20197;-74
2021/05/18 14:12:54;;;;;;;8.93;7.50;;;;;;;;;;5097059;28;20871;-74
2021/05/18 14:15:20;;;;;;;8.53;6.80;;;;;;;;;;5097021;28;20529;-75
2021/05/18 14:17:47;;;;;;;8.67;6.30;;;;;;;;;;5097085;28;20527;-74
2021/05/18 14:20:14;;;;;;;8.37;7.67;;;;;;;;;;5097435;28;20501;-75
2021/05/18 14:22:41;;;;;;;9.20;8.03;;;;;;;;;;5096664;28;20479;-74
2021/05/18 14:25:08;;;;;;;8.07;7.27;;;;;;;;;;5096818;28;20488;-75
2021/05/18 14:27:36;;;;;;;7.80;6.87;;;;;;;;;;5097291;28;20486;-77
2021/05/18 14:30:05;;;;;;;7.10;6.00;;;;;;;;;;5096457;28;20482;-75
2021/05/18 14:32:31;;;;;;;7.53;6.37;;;;;;;;;;5096507;28;20447;-75
2021/05/18 14:34:58;;;;;;;7.47;6.30;;;;;;;;;;5096619;28;20448;-76
2021/05/18 14:37:25;;;;;;;6.80;6.10;;;;;;;;;;5097143;28;20436;-76
2021/05/18 14:39:59;;;;;;;9.70;6.00;;;;;;;;;;5096315;28;20444;-77
2021/05/18 14:45:09;;;;;;;7.33;6.73;;;;;;;;;;5093418;28;20425;-76
2021/05/18 14:47:42;;;;;;;6.53;5.80;;;;;;;;;;5096527;28;20431;-77
2021/05/18 14:55:39;;;;;;;3.20;3.00;;;;;;;;;;5096402;28;20447;-79
2021/05/18 14:58:06;;;;;;;3.20;2.70;;;;;;;;;;5096722;28;20544;-79
2021/05/18 15:00:36;;;;;;;2.73;2.53;;;;;;;;;;5095978;28;20558;-80
2021/05/18 15:03:03;;;;;;;4.67;2.30;;;;;;;;;;5096058;28;20463;-84
2021/05/18 15:05:29;;;;;;;7.33;2.90;;;;;;;;;;5095924;28;20456;-84
2021/05/18 15:07:56;;;;;;;2.87;2.60;;;;;;;;;;5095426;28;20441;-86
2021/05/18 15:10:23;;;;;;;3.93;2.70;;;;;;;;;;5096547;28;20448;-87
2021/05/18 15:12:49;;;;;;;2.70;2.40;;;;;;;;;;5098396;28;20439;-88
2021/05/18 15:15:16;;;;;;;2.90;2.70;;;;;;;;;;5096854;28;20539;-87
2021/05/18 15:17:44;;;;;;;3.10;2.80;;;;;;;;;;5096158;28;20515;-87
2021/05/18 15:20:12;;;;;;;2.87;2.67;;;;;;;;;;5096035;28;20440;-85
2021/05/18 15:22:39;;;;;;;3.10;2.80;;;;;;;;;;5095755;28;20444;-84
2021/05/18 15:25:06;;;;;;;2.97;2.67;;;;;;;;;;5095830;28;20439;-84
2021/05/18 15:27:33;;;;;;;4.20;3.73;;;;;;;;;;5096015;28;20781;-84
2021/05/18 15:30:00;;;;;;;3.90;3.60;;;;;;;;;;5095653;28;20574;-84
2021/05/18 15:32:27;;;;;;;3.83;3.30;;;;;;;;;;5095986;28;20443;-83
2021/05/18 15:34:54;;;;;;;6.30;3.90;;;;;;;;;;5095733;28;20455;-83
2021/05/18 15:37:21;;;;;;;3.40;3.20;;;;;;;;;;5095308;28;20534;-82
2021/05/18 15:39:48;;;;;;;3.03;2.83;;;;;;;;;;5095192;28;20525;-82
2021/05/18 15:42:15;;;;;;;3.00;2.80;;;;;;;;;;5095320;28;20480;-82
2021/05/18 15:44:41;;;;;;;3.60;3.30;;;;;;;;;;5095125;28;20554;-81
2021/05/18 15:47:08;;;;;;;3.27;3.07;;;;;;;;;;5095890;28;20536;-78
2021/05/18 15:49:35;;;;;;;3.03;2.83;;;;;;;;;;5095388;28;20472;-81
2021/05/18 15:52:04;;;;;;;3.00;2.50;;;;;;;;;;5094940;28;20991;-80
2021/05/18 15:54:31;;;;;;;3.47;3.27;;;;;;;;;;5095059;28;20448;-80
2021/05/18 15:56:58;;;;;;;3.97;3.40;;;;;;;;;;5094787;28;20919;-81
2021/05/18 15:59:24;;;;;;;4.47;4.07;;;;;;;;;;5095626;28;20441;-83
2021/05/18 16:01:51;;;;;;;2.87;2.67;;;;;;;;;;5095030;28;20563;-79
2021/05/18 16:04:18;;;;;;;4.03;3.43;;;;;;;;;;5095382;28;20885;-80
2021/05/18 16:06:45;;;;;;;4.10;3.80;;;;;;;;;;5095955;28;20436;-79
2021/05/18 16:09:13;;;;;;;4.77;4.37;;;;;;;;;;5091004;28;20528;-77
2021/05/18 16:11:41;;;;;;;3.93;3.63;;;;;;;;;;5074660;28;20801;-78
2021/05/18 16:14:08;;;;;;;4.40;4.00;;;;;;;;;;5074763;28;20797;-80
2021/05/18 16:16:35;;;;;;;4.67;4.27;;;;;;;;;;5074759;28;20468;-79
2021/05/18 16:19:02;;;;;;;7.27;4.17;;;;;;;;;;5074324;28;20465;-80
2021/05/18 16:21:29;;;;;;;4.17;3.87;;;;;;;;;;5074717;28;20484;-78
2021/05/18 16:23:56;;;;;;;6.10;4.40;;;;;;;;;;5075069;28;20483;-79
2021/05/18 16:26:25;;;;;;;5.00;4.10;;;;;;;;;;5074936;28;20445;-78
2021/05/18 16:28:52;;;;;;;4.70;4.30;;;;;;;;;;5074580;28;20536;-79
2021/05/18 16:31:19;;;;;;;4.40;4.00;;;;;;;;;;5074169;28;20472;-78
2021/05/18 16:33:46;;;;;;;5.90;5.40;;;;;;;;;;5074574;28;20800;-80
2021/05/18 16:36:15;;;;;;;5.73;5.23;;;;;;;;;;5074679;28;20536;-79
2021/05/18 16:38:42;;;;;;;5.37;4.87;;;;;;;;;;5073939;28;20484;-81
2021/05/18 16:41:09;;;;;;;7.07;5.70;;;;;;;;;;5073587;28;20561;-81
2021/05/18 16:43:36;;;;;;;6.13;5.57;;;;;;;;;;5075771;28;20441;-81
2021/05/18 16:46:04;;;;;;;5.70;5.03;;;;;;;;;;5074178;28;20449;-79
2021/05/18 16:48:31;;;;;;;5.40;4.90;;;;;;;;;;5074497;28;20541;-79
2021/05/18 16:51:00;;;;;;;5.47;4.97;;;;;;;;;;5075834;28;20554;-81
2021/05/18 16:53:27;;;;;;;5.00;4.60;;;;;;;;;;5074408;28;20443;-85
2021/05/18 16:55:55;;;;;;;5.60;5.10;;;;;;;;;;5074316;28;20445;-79
2021/05/18 16:58:22;;;;;;;5.50;5.00;;;;;;;;;;5074168;28;20877;-79
2021/05/18 17:00:49;;;;;;;5.33;4.90;;;;;;;;;;5073653;28;20569;-79
2021/05/18 17:03:16;;;;;;;5.17;4.77;;;;;;;;;;5073866;28;20464;-82
2021/05/18 17:05:43;;;;;;;5.03;4.53;;;;;;;;;;5073935;28;20532;-76
2021/05/18 17:08:10;;;;;;;5.20;4.70;;;;;;;;;;5073599;28;20739;-78
2021/05/18 17:10:38;;;;;;;4.80;4.40;;;;;;;;;;5073591;28;20448;-78
2021/05/18 17:13:05;;;;;;;4.00;3.70;;;;;;;;;;5073454;28;20475;-79
2021/05/18 17:15:32;;;;;;;4.60;4.20;;;;;;;;;;5073591;28;20442;-78
2021/05/18 17:18:06;;;;;;;5.57;4.20;;;;;;;;;;5074062;28;20478;-77
2021/05/18 17:20:34;;;;;;;5.20;4.80;;;;;;;;;;5073410;28;20465;-78
2021/05/18 17:23:01;;;;;;;4.60;4.20;;;;;;;;;;5073601;28;20451;-79
2021/05/18 17:25:28;;;;;;;4.27;3.80;;;;;;;;;;5073795;28;20427;-79
2021/05/18 17:27:55;;;;;;;4.63;4.23;;;;;;;;;;5073480;28;20436;-79
2021/05/18 17:30:24;;;;;;;4.20;3.27;;;;;;;;;;5073162;28;20483;-77
2021/05/18 17:32:51;;;;;;;4.50;3.90;;;;;;;;;;5072554;28;20920;-78
2021/05/18 17:35:19;;;;;;;4.60;4.20;;;;;;;;;;5073704;28;20477;-80
2021/05/18 17:37:46;;;;;;;5.30;3.53;;;;;;;;;;5074319;28;20442;-80
2021/05/18 17:40:14;;;;;;;5.80;3.80;;;;;;;;;;5073314;28;20939;-77
2021/05/18 17:42:41;;;;;;;3.53;3.23;;;;;;;;;;5073868;28;20527;-81
2021/05/18 17:45:10;;;;;;;4.70;4.10;;;;;;;;;;5075647;28;20443;-79
2021/05/18 17:47:37;;;;;;;3.90;3.60;;;;;;;;;;5074061;28;20794;-81
2021/05/18 17:50:04;;;;;;;4.27;3.73;;;;;;;;;;5074048;28;20954;-80
2021/05/18 17:52:32;;;;;;;7.40;5.23;;;;;;;;;;5074017;28;20440;-77
2021/05/18 17:54:58;;;;;;;5.13;4.57;;;;;;;;;;5073221;28;20449;-79
2021/05/18 17:57:25;;;;;;;6.60;5.93;;;;;;;;;;5073442;28;20444;-77
2021/05/18 17:59:52;;;;;;;7.17;6.20;;;;;;;;;;5073032;28;20544;-74
2021/05/18 18:02:19;;;;;;;7.10;5.93;;;;;;;;;;5073396;28;20473;-73
2021/05/18 18:04:46;;;;;;;8.87;5.50;;;;;;;;;;5072004;28;20463;-72
2021/05/18 18:07:12;;;;;;;7.33;5.80;;;;;;;;;;5072995;28;20801;-79
2021/05/18 18:09:43;;;;;;;6.73;5.77;;;;;;;;;;5073125;28;20444;-77
2021/05/18 18:12:10;;;;;;;9.13;6.40;;;;;;;;;;5073767;28;20429;-77
2021/05/18 18:14:38;;;;;;;7.17;5.93;;;;;;;;;;5074033;28;20457;-79
2021/05/18 18:17:06;;;;;;;6.33;5.70;;;;;;;;;;5074025;28;20448;-78
2021/05/18 18:19:35;;;;;;;6.40;5.80;;;;;;;;;;5073685;28;20476;-76
2021/05/18 18:22:02;;;;;;;6.80;6.20;;;;;;;;;;5073725;28;20484;-76
2021/05/18 18:24:30;;;;;;;8.33;6.60;;;;;;;;;;5073078;28;20524;-76
2021/05/18 18:26:58;;;;;;;8.80;6.50;;;;;;;;;;5072962;28;20448;-74
2021/05/18 18:29:25;;;;;;;7.90;6.57;;;;;;;;;;5073140;28;20774;-74
2021/05/18 18:31:52;;;;;;;8.27;7.27;;;;;;;;;;5072626;28;20443;-73
2021/05/18 18:34:18;;;;;;;6.57;5.90;;;;;;;;;;5072194;28;20928;-74
2021/05/18 18:36:46;;;;;;;9.73;6.80;;;;;;;;;;5072972;28;20476;-75
2021/05/18 18:39:14;;;;;;;8.83;6.87;;;;;;;;;;5072862;28;20546;-75
2021/05/18 18:41:41;;;;;;;7.03;6.40;;;;;;;;;;5072632;28;20472;-74
2021/05/18 18:44:08;;;;;;;7.40;6.00;;;;;;;;;;5075725;28;20444;-75
2021/05/18 18:46:37;;;;;;;7.60;6.03;;;;;;;;;;5076278;28;20440;-75
2021/05/18 18:49:05;;;;;;;7.33;5.90;;;;;;;;;;5076270;28;20498;-74
2021/05/18 18:51:32;;;;;;;6.00;5.40;;;;;;;;;;5076423;28;20787;-75
2021/05/18 18:53:59;;;;;;;7.13;6.43;;;;;;;;;;5076153;28;20448;-75
2021/05/18 18:56:30;;;;;;;6.73;6.03;;;;;;;;;;5076803;28;20443;-79